Chollas Lake (167) Station Data

Red Flag Warning: No
Fire Weather Zone: 243
SDGE Region: Metro
Lat/Lon: 32.736/-117.067

Observations

Time Wind Speed/Gust Temp(F) RH Fuel Moist Fuel Temp(F) Dewpt(F) Tmax(F) Tmin(F) Accum Precip 10-min Precip SL Press(mb)
6/27 5:00pm 210 5 G 9 82° 47% - - 60° 85.2° 64.5° - - -
6/27 4:50pm 214 4 G 10 82° 47% - - 60° 85.2° 64.5° - - -
6/27 4:40pm 214 5 G 10 82° 47% - - 60° 85.2° 64.5° - - -
6/27 4:30pm 215 4 G 10 82° 47% - - 60° 85.2° 64.5° - - -
6/27 4:20pm 246 4 G 12 83° 42% - - 58° 85.2° 64.5° - - -
6/27 4:10pm 242 4 G 10 84° 43% - - 58° 85.2° 64.5° - - -
6/27 4:00pm 218 4 G 10 83° 42% - - 58° 84.3° 64.5° - - -
6/27 3:50pm 245 5 G 9 82° 44% - - 58° 83.4° 64.5° - - -
6/27 3:40pm 234 5 G 9 82° 46% - - 59° 83.4° 64.5° - - -
6/27 3:30pm 236 5 G 11 82° 48% - - 60° 83.2° 64.5° - - -
6/27 3:20pm 200 5 G 8 81° 54% - - 63° 83.2° 64.5° - - -
6/27 3:10pm 203 5 G 9 80° 56% - - 63° 83.2° 64.5° - - -
6/27 3:00pm 197 6 G 12 80° 55% - - 63° 83.2° 64.5° - - -
6/27 2:50pm 206 5 G 9 81° 55% - - 63° 83.2° 64.5° - - -
6/27 2:40pm 213 5 G 10 80° 55% - - 63° 83.2° 64.5° - - -
6/27 2:30pm 208 6 G 10 80° 55% - - 63° 83.2° 64.5° - - -
6/27 2:20pm 214 6 G 10 81° 54% - - 63° 83.2° 64.5° - - -
6/27 2:10pm 203 5 G 11 81° 53% - - 62° 83.2° 64.5° - - -
6/27 2:00pm 208 5 G 8 82° 53% - - 63° 83.2° 64.5° - - -
6/27 1:50pm 221 6 G 11 81° 53% - - 63° 83.2° 64.5° - - -
6/27 1:40pm 220 5 G 10 81° 54% - - 63° 83.2° 64.5° - - -
6/27 1:30pm 213 6 G 11 81° 55% - - 63° 83.2° 64.5° - - -
6/27 1:20pm 210 5 G 9 81° 54% - - 63° 83.2° 64.5° - - -
6/27 1:10pm 212 5 G 9 81° 55% - - 63° 83.2° 64.5° - - -
6/27 1:00pm 208 5 G 11 80° 56% - - 63° 83.2° 64.5° - - -
6/27 12:50pm 213 5 G 9 80° 56% - - 63° 83.2° 64.5° - - -
6/27 12:40pm 199 5 G 10 80° 57% - - 63° 83.2° 64.5° - - -
6/27 12:30pm 202 6 G 13 80° 57% - - 63° 83.2° 64.5° - - -
6/27 12:20pm 203 6 G 11 81° 55% - - 63° 83.2° 64.5° - - -
6/27 12:10pm 213 5 G 11 82° 53% - - 63° 83.2° 64.5° - - -
6/27 12:00pm 222 5 G 12 82° 53% - - 63° 82.8° 64.5° - - -
6/27 11:50am 236 4 G 8 82° 53% - - 63° 82.7° 64.5° - - -
6/27 11:40am 226 5 G 9 81° 54% - - 63° 82.5° 64.5° - - -
6/27 11:30am 223 5 G 9 82° 52% - - 62° 82.5° 64.5° - - -
6/27 11:20am 227 4 G 9 82° 50% - - 61° 82.5° 64.5° - - -
6/27 11:10am 237 4 G 8 82° 50% - - 61° 82.5° 64.5° - - -
6/27 11:00am 229 4 G 8 81° 51% - - 61° 82.5° 64.5° - - -
6/27 10:50am 223 3 G 7 80° 52% - - 61° 81.5° 64.5° - - -
6/27 10:40am 227 4 G 8 80° 53% - - 61° 80.8° 64.5° - - -
6/27 10:30am 227 4 G 6 80° 53% - - 61° 80.3° 64.5° - - -
6/27 10:20am 205 4 G 6 80° 51% - - 60° 80.2° 64.5° - - -
6/27 10:10am 217 3 G 6 79° 54% - - 61° 80.1° 64.5° - - -
6/27 9:50am 224 4 G 6 78° 57% - - 62° 79.5° 64.5° - - -
6/27 9:40am 226 4 G 8 78° 57% - - 62° 79.1° 64.5° - - -
6/27 9:30am 225 4 G 7 78° 56% - - 61° 79.1° 64.5° - - -
6/27 9:20am 235 3 G 6 77° 57% - - 61° 78.4° 64.5° - - -
6/27 9:10am 210 3 G 6 77° 59% - - 62° 78.3° 64.5° - - -
6/27 9:00am 227 3 G 6 78° 57% - - 61° 78.3° 64.5° - - -
6/27 8:40am 247 3 G 6 77° 54% - - 58° 78.2° 64.5° - - -
6/27 8:30am 237 3 G 4 77° 55% - - 59° 78.2° 64.5° - - -
6/27 8:20am 265 1 G 2 77° 47% - - 56° 78.2° 64.5° - - -
6/27 8:10am 321 1 G 2 77° 44% - - 53° 77.9° 64.5° - - -
6/27 8:00am 20 0 G 2 76° 46% - - 54° 77.9° 64.5° - - -
6/27 7:50am 278 0 G 1 74° 49% - - 54° 77.5° 64.5° - - -
6/27 7:40am 1 1 G 2 72° 58% - - 56° 77.5° 64.5° - - -
6/27 7:30am 325 2 G 2 70° 72% - - 60° 77.5° 64.5° - - -
6/27 7:20am 331 2 G 3 69° 78% - - 62° 77.5° 64.5° - - -
6/27 7:10am 314 1 G 2 68° 84% - - 63° 77.5° 64.5° - - -
6/27 7:00am 334 1 G 2 69° 84% - - 64° 77.5° 64.5° - - -
6/27 6:50am 150 0 G 1 68° 88% - - 64° 77.5° 64.5° - - -
6/27 6:40am 153 1 G 2 67° 91% - - 64° 77.5° 64.5° - - -
6/27 6:30am 145 0 G 2 66° 93% - - 64° 77.5° 64.5° - - -
6/27 6:20am 342 0 G 1 66° 93% - - 64° 77.5° 64.5° - - -
6/27 6:10am 68 1 G 2 66° 93% - - 64° 77.5° 64.5° - - -
6/27 6:00am 105 1 G 1 65° 94% - - 63° 77.5° 64.5° - - -
6/27 5:50am 89 1 G 2 65° 94% - - 63° 77.5° 64.5° - - -
6/27 5:40am 137 1 G 2 65° 94% - - 63° 77.5° 64.5° - - -
6/27 5:30am 119 1 G 2 65° 93% - - 63° 77.5° 64.5° - - -
6/27 5:20am 141 1 G 2 65° 93% - - 63° 77.5° 64.5° - - -
6/27 5:10am 151 1 G 2 65° 93% - - 63° 77.5° 64.5° - - -
6/27 5:00am 110 2 G 4 65° 93% - - 63° 77.5° 64.5° - - -
6/27 4:50am 101 2 G 4 66° 94% - - 64° 77.5° 65° - - -
6/27 4:40am 26 1 G 1 65° 93% - - 63° 77.5° 65° - - -
6/27 4:30am 228 0 G 1 66° 93% - - 63° 77.5° 65.1° - - -
6/27 4:20am 202 0 G 1 66° 92% - - 63° 77.5° 65.3° - - -
6/27 4:10am 192 1 G 2 66° 91% - - 63° 77.5° 65.6° - - -
6/27 4:00am 167 1 G 2 66° 90% - - 63° 77.5° 65.7° - - -
6/27 3:50am 159 2 G 3 66° 91% - - 64° 77.5° 65.9° - - -
6/27 3:40am 164 2 G 3 67° 91% - - 64° 77.5° 66.4° - - -
6/27 3:30am 167 1 G 2 67° 90% - - 64° 77.5° 66.4° - - -
6/27 3:20am 180 1 G 2 67° 88% - - 63° 77.5° 66.6° - - -
6/27 3:10am 223 0 G 1 67° 89% - - 64° 77.5° 66.6° - - -
6/27 3:00am 39 1 G 1 68° 89% - - 64° 77.5° 67.1° - - -
6/27 2:50am 56 1 G 2 68° 89% - - 64° 77.5° 67.1° - - -
6/27 2:40am 83 0 G 1 68° 89% - - 64° 77.5° 67.1° - - -
6/27 2:30am 94 1 G 1 68° 88% - - 64° 77.5° 67.1° - - -
6/27 2:20am 127 1 G 2 68° 88% - - 64° 77.5° 67.2° - - -
6/27 2:10am 95 1 G 2 68° 89% - - 64° 77.5° 67.2° - - -
6/27 2:00am 97 1 G 3 68° 88% - - 64° 77.5° 67.2° - - -
6/27 1:50am 143 2 G 3 68° 89% - - 64° 77.5° 67.2° - - -
6/27 1:40am 156 3 G 4 68° 87% - - 64° 77.5° 67.3° - - -
6/27 1:30am 184 1 G 2 69° 81% - - 63° 77.5° 68.2° - - -
6/27 1:20am 229 1 G 3 70° 78% - - 63° 77.5° 69.3° - - -
6/27 1:10am 228 1 G 2 71° 76% - - 63° 77.5° 69.9° - - -
6/27 1:00am 231 1 G 2 71° 73% - - 62° 77.5° 70.3° - - -
6/27 12:50am 250 2 G 3 71° 71% - - 61° 77.5° 70.3° - - -
6/27 12:40am 218 1 G 2 72° 69% - - 61° 77.5° 70.5° - - -
6/27 12:30am 281 2 G 4 74° 62% - - 60° 77.5° 72° - - -
6/27 12:20am 294 2 G 3 76° 48% - - 55° 77.5° 74.8° - - -
6/27 12:10am 351 0 G 1 77° 41% - - 52° 77.5° 76.6° - - -
6/27 12:00am 13 1 G 4 78° 40% - - 52° 86.9° 64.7° - - -
6/26 11:50pm 20 3 G 5 75° 55% - - 57° 86.9° 64.7° - - -
6/26 11:40pm 62 2 G 3 75° 62% - - 61° 86.9° 64.7° - - -
6/26 11:30pm 96 1 G 3 74° 68% - - 62° 86.9° 64.7° - - -
6/26 11:20pm 63 2 G 4 73° 69% - - 63° 86.9° 64.7° - - -
6/26 11:10pm 23 2 G 4 73° 72% - - 63° 86.9° 64.7° - - -
6/26 11:00pm 11 1 G 2 72° 74% - - 63° 86.9° 64.7° - - -
6/26 10:50pm 39 1 G 2 72° 78% - - 65° 86.9° 64.7° - - -
6/26 10:40pm 34 1 G 2 72° 76% - - 64° 86.9° 64.7° - - -
6/26 10:30pm 164 0 G 1 71° 77% - - 63° 86.9° 64.7° - - -
6/26 10:20pm 177 1 G 2 71° 76% - - 63° 86.9° 64.7° - - -
6/26 10:10pm 351 0 G 1 71° 77% - - 64° 86.9° 64.7° - - -
6/26 10:00pm 334 1 G 2 71° 78% - - 63° 86.9° 64.7° - - -
6/26 9:50pm 317 1 G 3 71° 78% - - 64° 86.9° 64.7° - - -
6/26 9:40pm 305 2 G 3 71° 77% - - 63° 86.9° 64.7° - - -
6/26 9:30pm 305 1 G 3 72° 75% - - 63° 86.9° 64.7° - - -
6/26 9:20pm 270 1 G 2 72° 74% - - 63° 86.9° 64.7° - - -
6/26 9:10pm 197 0 G 1 72° 74% - - 63° 86.9° 64.7° - - -
6/26 9:00pm 200 1 G 2 72° 74% - - 63° 86.9° 64.7° - - -
6/26 8:50pm 158 1 G 2 72° 74% - - 63° 86.9° 64.7° - - -
6/26 8:40pm 179 1 G 3 72° 74% - - 63° 86.9° 64.7° - - -
6/26 8:30pm 190 1 G 2 72° 73% - - 63° 86.9° 64.7° - - -
6/26 8:20pm 168 2 G 3 73° 72% - - 63° 86.9° 64.7° - - -
6/26 8:10pm 188 1 G 2 73° 71% - - 63° 86.9° 64.7° - - -
6/26 8:00pm 183 2 G 3 74° 69% - - 63° 86.9° 64.7° - - -
6/26 7:50pm 178 2 G 3 75° 67% - - 63° 86.9° 64.7° - - -
6/26 7:40pm 186 2 G 4 75° 65% - - 63° 86.9° 64.7° - - -
6/26 7:30pm 191 2 G 4 76° 64% - - 63° 86.9° 64.7° - - -
6/26 7:20pm 185 3 G 5 76° 63% - - 63° 86.9° 64.7° - - -
6/26 7:10pm 191 3 G 5 77° 62% - - 63° 86.9° 64.7° - - -
6/26 7:00pm 191 3 G 5 78° 61% - - 63° 86.9° 64.7° - - -
6/26 6:50pm 180 3 G 5 78° 60% - - 63° 86.9° 64.7° - - -
6/26 6:40pm 179 4 G 6 78° 60% - - 63° 86.9° 64.7° - - -
6/26 6:30pm 180 4 G 7 79° 59% - - 63° 86.9° 64.7° - - -
6/26 6:20pm 201 3 G 6 79° 58% - - 63° 86.9° 64.7° - - -
6/26 6:10pm 202 4 G 6 79° 57% - - 63° 86.9° 64.7° - - -
6/26 6:00pm 192 4 G 8 80° 56% - - 63° 86.9° 64.7° - - -
6/26 5:50pm 199 3 G 6 81° 54% - - 63° 86.9° 64.7° - - -
6/26 5:40pm 212 3 G 6 81° 54% - - 63° 86.9° 64.7° - - -
6/26 5:30pm 200 3 G 6 81° 54% - - 63° 86.9° 64.7° - - -
6/26 5:20pm 213 3 G 7 81° 55% - - 63° 86.9° 64.7° - - -
6/26 5:10pm 205 3 G 7 81° 56% - - 63° 86.9° 64.7° - - -
6/26 5:00pm 201 4 G 9 80° 57% - - 64° 86.9° 64.7° - - -
6/26 4:50pm 212 4 G 10 81° 56% - - 64° 86.9° 64.7° - - -
6/26 4:40pm 202 5 G 9 81° 56% - - 64° 86.9° 64.7° - - -
6/26 4:30pm 204 4 G 7 81° 55% - - 64° 86.9° 64.7° - - -
6/26 4:20pm 202 5 G 9 82° 54% - - 63° 86.9° 64.7° - - -
6/26 4:10pm 218 4 G 9 83° 52% - - 64° 86.9° 64.7° - - -
6/26 4:00pm 204 4 G 8 82° 54% - - 64° 86.9° 64.7° - - -
6/26 3:50pm 216 5 G 9 82° 54% - - 64° 86.9° 64.7° - - -
6/26 3:40pm 220 4 G 8 82° 54% - - 64° 86.9° 64.7° - - -
6/26 3:30pm 221 4 G 8 82° 54% - - 64° 86.9° 64.7° - - -
6/26 3:20pm 211 5 G 8 82° 55% - - 64° 86.9° 64.7° - - -
6/26 3:10pm 206 4 G 10 83° 54% - - 64° 86.9° 64.7° - - -
6/26 3:00pm 211 4 G 8 83° 53% - - 64° 86.9° 64.7° - - -
6/26 2:50pm 209 5 G 8 84° 52% - - 64° 86.9° 64.7° - - -
6/26 2:40pm 220 5 G 11 84° 51% - - 64° 86.9° 64.7° - - -
6/26 2:30pm 226 5 G 9 85° 49% - - 64° 86.9° 64.7° - - -
6/26 2:20pm 228 5 G 9 86° 48% - - 64° 86.9° 64.7° - - -
6/26 2:10pm 231 5 G 8 85° 48% - - 63° 86.9° 64.7° - - -
6/26 2:00pm 241 4 G 7 85° 47% - - 63° 86.7° 64.7° - - -
6/26 1:50pm 255 4 G 7 84° 48% - - 62° 84.8° 64.7° - - -
6/26 1:40pm 244 4 G 8 83° 49% - - 62° 83.4° 64.7° - - -
6/26 1:30pm 246 4 G 7 81° 51% - - 62° 82.7° 64.7° - - -
6/26 1:20pm 238 3 G 7 81° 53% - - 62° 82.7° 64.7° - - -
6/26 1:10pm 246 3 G 5 80° 55% - - 62° 80.5° 64.7° - - -
6/26 1:00pm 238 3 G 7 78° 57% - - 62° 79.4° 64.7° - - -
6/26 12:50pm 217 3 G 8 78° 58% - - 62° 79.1° 64.7° - - -
6/26 12:40pm 236 4 G 8 77° 60% - - 62° 78.9° 64.7° - - -
6/26 12:30pm 242 4 G 8 77° 61% - - 62° 77.9° 64.7° - - -
6/26 12:20pm 229 4 G 8 76° 63% - - 62° 77.4° 64.7° - - -
6/26 12:10pm 233 4 G 8 76° 63% - - 62° 77.4° 64.7° - - -
6/26 12:00pm 237 4 G 8 75° 64% - - 62° 77.4° 64.7° - - -
6/26 11:50am 223 3 G 7 75° 65% - - 62° 77.4° 64.7° - - -
6/26 11:40am 240 4 G 8 73° 68% - - 62° 77.4° 64.7° - - -
6/26 11:30am 222 4 G 7 72° 69% - - 62° 77.4° 64.7° - - -
6/26 11:20am 207 4 G 6 73° 69% - - 62° 77.4° 64.7° - - -
6/26 11:10am 220 4 G 8 72° 72% - - 62° 77.4° 64.7° - - -
6/26 11:00am 212 3 G 7 72° 71% - - 62° 77.4° 64.7° - - -
6/26 10:50am 239 4 G 8 71° 74% - - 62° 77.4° 64.7° - - -
6/26 10:40am 232 5 G 8 70° 75% - - 62° 77.4° 64.7° - - -
6/26 10:30am 232 4 G 8 71° 73% - - 62° 77.4° 64.7° - - -
6/26 10:20am 213 4 G 7 71° 74% - - 63° 77.4° 64.7° - - -
6/26 10:10am 218 4 G 8 71° 75% - - 62° 77.4° 64.7° - - -
6/26 10:00am 220 4 G 8 71° 73% - - 62° 77.4° 64.7° - - -
6/26 9:50am 226 5 G 9 71° 73% - - 62° 77.4° 64.7° - - -
6/26 9:40am 210 4 G 10 72° 71% - - 62° 77.4° 64.7° - - -
6/26 9:30am 211 5 G 9 74° 68% - - 63° 77.4° 64.7° - - -
6/26 9:20am 216 4 G 10 75° 67% - - 63° 77.4° 64.7° - - -
6/26 9:10am 209 4 G 9 76° 65% - - 63° 77.4° 64.7° - - -
6/26 9:00am 214 4 G 9 76° 62% - - 62° 77.4° 64.7° - - -
6/26 8:50am 194 3 G 7 77° 60% - - 62° 77.4° 64.7° - - -
6/26 8:40am 197 3 G 5 77° 60% - - 62° 77.4° 64.7° - - -
6/26 8:30am 205 2 G 4 76° 60% - - 62° 76.9° 64.7° - - -
6/26 8:20am 192 2 G 4 76° 61% - - 61° 76.4° 64.7° - - -
6/26 8:10am 229 2 G 3 74° 64% - - 61° 75.1° 64.7° - - -
6/26 8:00am 232 2 G 3 73° 67% - - 62° 74.9° 64.7° - - -
6/26 7:50am 225 2 G 3 73° 68% - - 62° 74.9° 64.7° - - -
6/26 7:40am 262 2 G 3 73° 69% - - 62° 74.9° 64.7° - - -
6/26 7:30am 288 2 G 2 72° 71% - - 62° 74.9° 64.7° - - -
6/26 7:20am 292 2 G 2 72° 72% - - 62° 74.9° 64.7° - - -
6/26 7:10am 284 1 G 2 74° 67% - - 62° 74.9° 64.7° - - -
6/26 7:00am 133 0 G 1 74° 64% - - 61° 74.9° 64.7° - - -
6/26 6:50am 69 1 G 2 73° 64% - - 60° 74° 64.7° - - -
6/26 6:40am 27 2 G 3 72° 67% - - 60° 72.8° 64.7° - - -
6/26 6:30am 20 1 G 2 71° 71% - - 61° 72.1° 64.7° - - -
6/26 6:20am 22 1 G 2 70° 74% - - 62° 71.1° 64.7° - - -
6/26 6:10am 38 2 G 3 70° 75% - - 62° 70.5° 64.7° - - -
6/26 6:00am 106 2 G 3 69° 77% - - 61° 70.5° 64.7° - - -